createdAt,value
2017-07-25T00:00:17.097Z,29.93
2017-07-25T00:02:44.634Z,27.43
2017-07-25T00:05:12.165Z,28.23
2017-07-25T00:07:39.745Z,29.67
2017-07-25T00:10:07.291Z,29.17
2017-07-25T00:12:34.838Z,28.30
2017-07-25T00:15:02.404Z,28.00
2017-07-25T00:17:29.942Z,27.80
2017-07-25T00:19:57.518Z,28.23
2017-07-25T00:22:25.057Z,27.10
2017-07-25T00:24:53.362Z,27.80
2017-07-25T00:27:20.929Z,26.60
2017-07-25T00:29:48.505Z,27.10
2017-07-25T00:32:16.046Z,27.40
2017-07-25T00:34:43.586Z,26.40
2017-07-25T00:37:11.167Z,26.80
2017-07-25T00:39:38.706Z,24.70
2017-07-25T00:42:06.269Z,25.57
2017-07-25T00:44:33.814Z,25.07
2017-07-25T00:47:02.154Z,24.33
2017-07-25T00:49:29.692Z,26.60
2017-07-25T00:51:57.271Z,25.07
2017-07-25T00:54:24.813Z,25.27
2017-07-25T00:56:52.354Z,26.30
2017-07-25T00:59:19.922Z,24.80
2017-07-25T01:01:47.464Z,24.10
2017-07-25T01:04:15.051Z,24.63
2017-07-25T01:06:42.594Z,24.00
2017-07-25T01:09:10.137Z,25.33
2017-07-25T01:11:38.474Z,24.93
2017-07-25T01:14:06.046Z,25.97
2017-07-25T01:16:33.616Z,25.30
2017-07-25T01:19:01.928Z,24.97
2017-07-25T01:21:29.506Z,26.17
2017-07-25T01:23:57.086Z,27.43
2017-07-25T01:26:24.648Z,27.37
2017-07-25T01:28:52.198Z,26.47
2017-07-25T01:31:19.766Z,27.20
2017-07-25T01:33:47.342Z,26.60
2017-07-25T01:36:14.883Z,26.00
2017-07-25T01:38:42.458Z,26.87
2017-07-25T01:41:10.004Z,23.10
2017-07-25T01:43:37.590Z,24.03
2017-07-25T01:46:05.135Z,25.80
2017-07-25T01:48:32.682Z,25.60
2017-07-25T01:51:00.254Z,23.03
2017-07-25T01:53:27.829Z,24.97
2017-07-25T01:55:55.370Z,24.10
2017-07-25T01:58:22.938Z,23.30
2017-07-25T02:00:50.518Z,26.97
2017-07-25T02:03:18.826Z,24.30
2017-07-25T02:05:46.359Z,25.80
2017-07-25T02:08:14.694Z,24.77
2017-07-25T02:10:42.241Z,23.00
2017-07-25T02:13:10.297Z,23.80
2017-07-25T02:15:37.834Z,24.40
2017-07-25T02:18:06.133Z,25.13
2017-07-25T02:20:33.703Z,26.50
2017-07-25T02:23:01.291Z,26.77
2017-07-25T02:25:28.827Z,26.80
2017-07-25T02:27:56.366Z,27.87
2017-07-25T02:30:23.981Z,26.97
2017-07-25T02:32:51.522Z,26.03
2017-07-25T02:35:19.059Z,27.70
2017-07-25T02:37:46.630Z,29.33
2017-07-25T02:40:14.206Z,27.30
2017-07-25T02:42:41.745Z,26.33
2017-07-25T02:45:09.322Z,25.23
2017-07-25T02:47:36.864Z,26.27
2017-07-25T02:50:04.443Z,25.50
2017-07-25T02:52:31.978Z,25.73
2017-07-25T02:54:59.558Z,29.47
2017-07-25T02:57:27.101Z,27.27
2017-07-25T02:59:54.642Z,29.97
2017-07-25T03:02:22.220Z,30.30
2017-07-25T03:04:49.757Z,26.30
2017-07-25T03:07:17.297Z,27.37
2017-07-25T03:09:45.640Z,29.20
2017-07-25T03:12:13.178Z,30.60
2017-07-25T03:14:40.746Z,29.97
2017-07-25T03:17:08.282Z,31.67
2017-07-25T03:19:35.858Z,29.97
2017-07-25T03:22:03.391Z,29.80
2017-07-25T03:24:30.925Z,31.07
2017-07-25T03:26:59.271Z,29.47
2017-07-25T03:29:26.811Z,28.13
2017-07-25T03:31:54.383Z,26.70
2017-07-25T03:34:21.918Z,27.53
2017-07-25T03:36:49.486Z,27.50
2017-07-25T03:39:17.022Z,25.03
2017-07-25T03:41:44.609Z,27.30
2017-07-25T03:44:12.151Z,24.07
2017-07-25T03:46:39.727Z,24.67
2017-07-25T03:49:07.354Z,26.77
2017-07-25T03:51:35.661Z,24.80
2017-07-25T03:54:03.198Z,25.93
2017-07-25T03:56:31.100Z,25.60
2017-07-25T03:58:58.637Z,26.50
2017-07-25T04:01:26.181Z,25.40
2017-07-25T04:03:53.755Z,23.50
2017-07-25T04:06:21.330Z,24.93
2017-07-25T04:08:48.869Z,24.23
2017-07-25T04:11:16.454Z,24.63
2017-07-25T04:13:43.996Z,24.83
2017-07-25T04:16:11.529Z,25.90
2017-07-25T04:18:39.859Z,24.57
2017-07-25T04:21:07.398Z,25.40
2017-07-25T04:23:34.968Z,25.80
2017-07-25T04:26:02.506Z,23.47
2017-07-25T04:28:30.074Z,27.53
2017-07-25T04:30:57.639Z,26.40
2017-07-25T04:33:25.178Z,25.87
2017-07-25T04:35:52.754Z,27.17
2017-07-25T04:38:20.294Z,23.40
2017-07-25T04:40:48.637Z,26.03
2017-07-25T04:43:16.182Z,25.80
2017-07-25T04:45:43.724Z,28.90
2017-07-25T04:48:11.294Z,25.37
2017-07-25T04:50:38.836Z,23.93
2017-07-25T04:53:06.427Z,24.73
2017-07-25T04:55:33.967Z,24.63
2017-07-25T04:58:02.722Z,24.07
2017-07-25T05:00:30.296Z,27.10
2017-07-25T05:02:57.833Z,25.40
2017-07-25T05:05:26.169Z,26.17
2017-07-25T05:07:53.713Z,29.13
2017-07-25T05:10:21.310Z,26.87
2017-07-25T05:12:48.853Z,27.77
2017-07-25T05:15:16.400Z,26.87
2017-07-25T05:17:43.970Z,28.07
2017-07-25T05:20:11.505Z,27.07
2017-07-25T05:22:40.733Z,27.30
2017-07-25T05:25:08.269Z,26.37
2017-07-25T05:27:35.810Z,25.53
2017-07-25T05:30:03.382Z,24.00
2017-07-25T05:32:30.963Z,24.40
2017-07-25T05:34:58.502Z,22.60
2017-07-25T05:37:26.039Z,24.47
2017-07-25T05:39:53.615Z,23.30
2017-07-25T05:42:21.162Z,24.80
2017-07-25T05:44:48.699Z,23.33
2017-07-25T05:47:17.359Z,25.00
2017-07-25T05:49:44.947Z,23.77
2017-07-25T05:52:12.487Z,27.27
2017-07-25T05:54:40.025Z,25.60
2017-07-25T05:57:07.598Z,22.87
2017-07-25T05:59:35.138Z,25.77
2017-07-25T06:02:02.711Z,26.50
2017-07-25T06:04:30.246Z,24.57
2017-07-25T06:06:57.831Z,26.37
2017-07-25T06:09:25.365Z,24.70
2017-07-25T06:11:52.903Z,26.87
2017-07-25T06:14:20.472Z,26.33
2017-07-25T06:16:48.071Z,25.27
2017-07-25T06:19:15.651Z,26.00
2017-07-25T06:21:43.960Z,26.33
2017-07-25T06:24:11.505Z,27.30
2017-07-25T06:26:39.078Z,26.40
2017-07-25T06:29:06.614Z,28.17
2017-07-25T06:31:34.958Z,26.90
2017-07-25T06:34:02.494Z,27.40
2017-07-25T06:36:30.036Z,26.43
2017-07-25T06:38:57.611Z,28.50
2017-07-25T06:41:25.154Z,24.80
2017-07-25T06:43:52.735Z,27.17
2017-07-25T06:46:20.274Z,29.00
2017-07-25T06:48:47.816Z,27.70
2017-07-25T06:51:16.151Z,26.00
2017-07-25T06:53:43.730Z,28.80
2017-07-25T06:56:11.275Z,28.47
2017-07-25T06:58:38.865Z,27.67
2017-07-25T07:01:07.170Z,26.17
2017-07-25T07:03:34.711Z,23.63
2017-07-25T07:06:02.279Z,25.10
2017-07-25T07:08:29.856Z,24.80
2017-07-25T07:10:57.393Z,23.93
2017-07-25T07:13:24.931Z,26.10
2017-07-25T07:15:52.499Z,25.13
2017-07-25T07:18:20.840Z,22.80
2017-07-25T07:20:48.378Z,21.57
2017-07-25T07:23:15.950Z,21.83
2017-07-25T07:25:43.516Z,22.40
2017-07-25T07:28:11.056Z,22.17
2017-07-25T07:30:38.946Z,21.57
2017-07-25T07:33:06.483Z,21.53
2017-07-25T07:35:34.033Z,22.20
2017-07-25T07:38:01.608Z,18.67
2017-07-25T07:40:29.175Z,20.67
2017-07-25T07:42:56.774Z,20.30
2017-07-25T07:45:24.309Z,17.37
2017-07-25T07:47:51.849Z,17.87
2017-07-25T07:50:19.429Z,17.77
2017-07-25T07:52:47.678Z,18.70
2017-07-25T07:55:15.223Z,16.90
2017-07-25T07:57:42.793Z,16.73
2017-07-25T08:00:10.364Z,17.00
2017-07-25T08:02:37.944Z,13.30
2017-07-25T08:05:05.486Z,12.30
2017-07-25T08:07:33.029Z,12.07
2017-07-25T08:10:00.600Z,12.20
2017-07-25T08:12:28.145Z,12.30
2017-07-25T08:14:55.741Z,10.90
2017-07-25T08:17:23.284Z,13.07
2017-07-25T08:19:50.825Z,12.50
2017-07-25T08:22:18.395Z,11.87
2017-07-25T08:24:45.938Z,10.10
2017-07-25T08:27:13.510Z,9.03
2017-07-25T08:29:41.053Z,10.50
2017-07-25T08:32:08.626Z,10.57
2017-07-25T08:34:36.208Z,10.53
2017-07-25T08:37:03.782Z,11.20
2017-07-25T08:39:31.317Z,11.10
2017-07-25T08:41:58.899Z,12.43
2017-07-25T08:44:26.436Z,10.73
2017-07-25T08:46:53.978Z,12.03
2017-07-25T08:49:21.552Z,11.00
2017-07-25T08:51:49.130Z,12.77
2017-07-25T08:54:16.671Z,12.90
2017-07-25T08:56:44.275Z,10.93
2017-07-25T08:59:11.817Z,12.23
2017-07-25T09:01:39.354Z,12.20
2017-07-25T09:04:06.931Z,10.93
2017-07-25T09:06:34.481Z,12.00
2017-07-25T09:09:02.050Z,11.07
2017-07-25T09:11:29.618Z,11.53
2017-07-25T09:13:57.170Z,11.50
2017-07-25T09:16:25.606Z,11.97
2017-07-25T09:18:53.178Z,10.93
2017-07-25T09:21:20.708Z,10.70
2017-07-25T09:23:51.672Z,10.10
2017-07-25T09:26:19.209Z,9.70
2017-07-25T09:28:47.514Z,8.70
2017-07-25T09:31:15.125Z,9.97
2017-07-25T09:33:42.667Z,8.93
2017-07-25T09:36:10.228Z,8.77
2017-07-25T09:38:37.789Z,8.10
2017-07-25T09:41:05.329Z,7.00
2017-07-25T09:43:32.900Z,7.03
2017-07-25T09:46:00.462Z,7.27
2017-07-25T09:48:28.026Z,6.00
2017-07-25T09:50:55.562Z,5.50
2017-07-25T09:53:23.128Z,5.90
2017-07-25T09:55:50.958Z,4.93
2017-07-25T09:58:19.938Z,4.80
2017-07-25T10:00:50.574Z,4.30
2017-07-25T10:03:18.973Z,4.43
2017-07-25T10:05:46.542Z,4.30
2017-07-25T10:08:14.125Z,3.57
2017-07-25T10:10:41.668Z,3.60
2017-07-25T10:13:09.210Z,5.30
2017-07-25T10:15:36.787Z,3.20
2017-07-25T10:18:04.314Z,3.70
2017-07-25T10:20:31.849Z,4.13
2017-07-25T10:22:59.410Z,3.00
2017-07-25T10:25:26.941Z,4.10
2017-07-25T10:27:54.502Z,4.27
2017-07-25T10:30:22.273Z,3.30
2017-07-25T10:33:04.440Z,3.43
2017-07-25T10:35:32.474Z,3.47
2017-07-25T10:38:02.737Z,3.23
2017-07-25T10:40:39.840Z,2.40
2017-07-25T10:43:19.435Z,3.10
2017-07-25T10:46:02.366Z,3.90
2017-07-25T10:48:30.658Z,3.70
2017-07-25T10:50:59.075Z,3.60
2017-07-25T10:53:34.213Z,4.10
2017-07-25T10:56:17.076Z,4.57
2017-07-25T11:01:25.673Z,5.10
2017-07-25T11:04:07.287Z,5.03
2017-07-25T11:06:36.766Z,6.03
2017-07-25T11:09:04.307Z,6.10
2017-07-25T11:11:31.870Z,7.37
2017-07-25T11:14:00.680Z,6.40
2017-07-25T11:16:28.953Z,7.90
2017-07-25T11:18:58.843Z,8.77
2017-07-25T11:21:28.613Z,8.50
2017-07-25T11:23:57.522Z,8.50
2017-07-25T11:26:26.152Z,9.17
2017-07-25T11:28:57.555Z,7.90
2017-07-25T11:31:26.633Z,7.77
2017-07-25T11:33:56.797Z,6.63
2017-07-25T11:36:25.623Z,7.43
2017-07-25T11:38:56.456Z,6.60
2017-07-25T11:41:25.535Z,7.53
2017-07-25T11:43:55.129Z,7.13
2017-07-25T11:46:22.771Z,6.70
2017-07-25T11:48:50.333Z,6.90
2017-07-25T11:51:17.894Z,8.40
2017-07-25T11:56:30.234Z,6.50
2017-07-25T11:58:57.802Z,6.00
2017-07-25T12:04:20.444Z,6.13
2017-07-25T12:06:48.074Z,6.13
2017-07-25T12:09:16.568Z,6.03
2017-07-25T12:11:44.103Z,6.20
2017-07-25T12:14:12.442Z,8.13
2017-07-25T12:16:39.983Z,8.50
2017-07-25T12:19:07.589Z,8.80
2017-07-25T12:21:42.603Z,7.20
2017-07-25T12:24:10.171Z,6.77
2017-07-25T12:26:38.641Z,7.20
2017-07-25T12:29:06.247Z,6.20
2017-07-25T12:31:34.548Z,4.77
2017-07-25T12:34:02.098Z,4.80
2017-07-25T12:36:29.672Z,4.20
2017-07-25T12:38:57.200Z,4.53
2017-07-25T12:41:26.047Z,4.60
2017-07-25T12:43:53.634Z,4.40
2017-07-25T12:46:21.177Z,4.20
2017-07-25T12:48:48.734Z,4.77
2017-07-25T12:51:16.268Z,4.83
2017-07-25T12:53:43.842Z,4.77
2017-07-25T12:56:11.373Z,6.00
2017-07-25T12:58:38.913Z,6.50
2017-07-25T13:01:18.308Z,6.40
2017-07-25T13:03:45.847Z,8.00
2017-07-25T13:06:13.381Z,6.67
2017-07-25T13:08:40.954Z,7.13
2017-07-25T13:11:08.520Z,7.30
2017-07-25T13:13:36.067Z,7.23
2017-07-25T13:16:03.630Z,7.73
2017-07-25T13:18:31.206Z,8.27
2017-07-25T13:20:58.753Z,7.50
2017-07-25T13:23:26.282Z,8.07
2017-07-25T13:25:54.610Z,7.40
2017-07-25T13:28:22.140Z,7.50
2017-07-25T13:30:49.708Z,7.03
2017-07-25T13:33:17.246Z,6.53
2017-07-25T13:35:44.842Z,6.30
2017-07-25T13:38:12.377Z,5.50
2017-07-25T13:40:39.916Z,4.77
2017-07-25T13:43:08.261Z,4.37
2017-07-25T13:45:35.815Z,4.90
2017-07-25T13:48:03.343Z,5.30
2017-07-25T13:50:30.938Z,5.10
2017-07-25T13:52:58.466Z,4.70
2017-07-25T13:55:25.992Z,4.37
2017-07-25T13:57:54.322Z,3.73
2017-07-25T14:00:21.872Z,4.53
2017-07-25T14:02:49.745Z,4.73
2017-07-25T14:05:17.279Z,3.07
2017-07-25T14:07:45.211Z,3.27
2017-07-25T14:10:12.778Z,3.30
2017-07-25T14:12:40.311Z,3.23
2017-07-25T14:15:07.877Z,2.70
2017-07-25T14:17:35.446Z,2.83
2017-07-25T14:20:02.987Z,2.50
2017-07-25T14:22:30.562Z,3.13
2017-07-25T14:24:58.097Z,2.63
2017-07-25T14:27:25.626Z,3.50
2017-07-25T14:29:53.206Z,3.10
2017-07-25T14:32:20.742Z,2.80
2017-07-25T14:34:48.275Z,2.83
2017-07-25T14:37:15.839Z,2.60
2017-07-25T14:39:44.176Z,3.20
2017-07-25T14:42:11.742Z,3.60
2017-07-25T14:44:39.349Z,2.23
2017-07-25T14:47:06.910Z,3.20
2017-07-25T14:49:35.647Z,2.87
2017-07-25T14:52:03.214Z,2.60
2017-07-25T14:54:30.750Z,2.40
2017-07-25T14:56:58.342Z,2.83
2017-07-25T14:59:25.878Z,2.20
2017-07-25T15:01:53.407Z,3.07
2017-07-25T15:04:21.002Z,2.80
2017-07-25T15:06:48.542Z,2.60
2017-07-25T15:09:16.084Z,2.70
2017-07-25T15:11:43.644Z,3.40
2017-07-25T15:14:11.175Z,2.73
2017-07-25T15:16:39.506Z,2.67
2017-07-25T15:19:07.046Z,2.93
2017-07-25T15:21:34.611Z,2.70
2017-07-25T15:24:02.177Z,2.60
2017-07-25T15:26:29.717Z,2.43
2017-07-25T15:28:57.278Z,2.67
2017-07-25T15:31:24.845Z,2.40
2017-07-25T15:33:52.380Z,2.40
2017-07-25T15:36:19.949Z,2.70
2017-07-25T15:38:47.490Z,2.70
2017-07-25T15:41:15.067Z,2.73
2017-07-25T15:43:42.602Z,3.30
2017-07-25T15:46:10.932Z,2.70
2017-07-25T15:48:39.536Z,3.17
2017-07-25T15:51:07.072Z,2.17
2017-07-25T15:53:34.603Z,2.60
2017-07-25T15:56:02.173Z,3.10
2017-07-25T15:58:29.755Z,3.03
2017-07-25T16:00:57.283Z,3.90
2017-07-25T16:03:24.818Z,4.10
2017-07-25T16:05:52.435Z,4.17
2017-07-25T16:08:19.966Z,3.73
2017-07-25T16:10:47.506Z,4.03
2017-07-25T16:13:15.077Z,4.30
2017-07-25T16:15:42.607Z,5.57
2017-07-25T16:18:12.178Z,4.87
2017-07-25T16:20:39.738Z,5.63
2017-07-25T16:23:07.270Z,4.97
2017-07-25T16:25:34.880Z,6.53
2017-07-25T16:28:02.423Z,6.30
2017-07-25T16:30:29.978Z,6.17
2017-07-25T16:32:57.604Z,7.30
2017-07-25T16:35:25.901Z,5.47
2017-07-25T16:37:53.515Z,6.63
2017-07-25T16:40:21.058Z,6.50
2017-07-25T16:42:48.599Z,5.97
2017-07-25T16:45:16.187Z,5.67
2017-07-25T16:47:43.715Z,5.00
2017-07-25T16:50:11.246Z,6.27
2017-07-25T16:52:38.815Z,4.83
2017-07-25T16:55:06.349Z,5.67
2017-07-25T16:57:33.926Z,5.73
2017-07-25T17:00:01.467Z,4.77
2017-07-25T17:02:29.006Z,4.93
2017-07-25T17:04:56.570Z,5.13
2017-07-25T17:07:24.106Z,5.60
2017-07-25T17:09:51.674Z,7.00
2017-07-25T17:12:19.234Z,5.70
2017-07-25T17:14:47.575Z,5.20
2017-07-25T17:17:17.616Z,4.90
2017-07-25T17:19:45.160Z,6.10
2017-07-25T17:22:12.737Z,6.17
2017-07-25T17:24:40.270Z,6.37
2017-07-25T17:27:07.809Z,7.67
2017-07-25T17:29:35.470Z,6.70
2017-07-25T17:32:03.031Z,6.70
2017-07-25T17:34:30.582Z,6.70
2017-07-25T17:36:58.931Z,6.00
2017-07-25T17:39:30.372Z,5.53
2017-07-25T17:42:00.942Z,5.17
2017-07-25T17:44:28.538Z,5.87
2017-07-25T17:46:56.822Z,4.90
2017-07-25T17:49:24.396Z,4.67
2017-07-25T17:51:51.944Z,5.53
2017-07-25T17:54:19.525Z,5.97
2017-07-25T17:56:47.082Z,4.30
2017-07-25T17:59:15.481Z,5.40
2017-07-25T18:01:43.014Z,5.23
2017-07-25T18:04:10.573Z,5.20
2017-07-25T18:06:38.145Z,5.07
2017-07-25T18:09:05.694Z,5.10
2017-07-25T18:11:33.263Z,5.60
2017-07-25T18:14:00.892Z,5.57
2017-07-25T18:16:29.262Z,5.30
2017-07-25T18:18:56.843Z,5.50
2017-07-25T18:21:24.378Z,4.50
2017-07-25T18:23:51.927Z,4.73
2017-07-25T18:26:19.490Z,4.00
2017-07-25T18:28:47.058Z,5.60
2017-07-25T18:31:14.632Z,5.43
2017-07-25T18:33:42.211Z,5.03
2017-07-25T18:36:10.263Z,5.53
2017-07-25T18:38:38.004Z,5.00
2017-07-25T18:41:05.788Z,5.97
2017-07-25T18:43:33.729Z,5.67
2017-07-25T18:46:02.353Z,7.20
2017-07-25T18:48:30.163Z,7.00
2017-07-25T18:50:57.695Z,6.00
2017-07-25T18:53:25.287Z,5.67
2017-07-25T18:55:53.590Z,7.00
2017-07-25T18:58:21.131Z,6.60
2017-07-25T19:00:49.464Z,8.50
2017-07-25T19:03:17.163Z,7.03
2017-07-25T19:05:45.466Z,7.47
2017-07-25T19:08:13.042Z,7.47
2017-07-25T19:10:40.589Z,6.90
2017-07-25T19:13:08.121Z,7.13
2017-07-25T19:15:36.483Z,7.93
2017-07-25T19:18:04.030Z,7.37
2017-07-25T19:20:31.565Z,7.30
2017-07-25T19:22:59.142Z,7.00
2017-07-25T19:25:26.681Z,7.87
2017-07-25T19:27:54.264Z,7.00
2017-07-25T19:30:22.636Z,8.20
2017-07-25T19:32:50.172Z,8.13
2017-07-25T19:35:18.403Z,7.83
2017-07-25T19:37:45.940Z,7.77
2017-07-25T19:40:13.851Z,7.67
2017-07-25T19:42:41.478Z,8.33
2017-07-25T19:45:09.799Z,8.97
2017-07-25T19:47:38.119Z,8.47
2017-07-25T19:50:05.809Z,7.97
2017-07-25T19:52:33.507Z,7.33
2017-07-25T19:55:01.123Z,7.63
2017-07-25T19:57:28.786Z,8.07
2017-07-25T19:59:58.867Z,8.87
2017-07-25T20:02:26.956Z,9.40
2017-07-25T20:04:54.512Z,9.30
2017-07-25T20:07:22.142Z,9.37
2017-07-25T20:09:52.381Z,10.13
2017-07-25T20:12:19.988Z,9.20
2017-07-25T20:14:47.533Z,10.30
2017-07-25T20:17:15.070Z,10.10
2017-07-25T20:19:42.654Z,10.93
2017-07-25T20:22:11.099Z,11.17
2017-07-25T20:24:38.655Z,11.43
2017-07-25T20:27:06.950Z,11.90
2017-07-25T20:29:34.539Z,12.10
2017-07-25T20:32:02.085Z,11.60
2017-07-25T20:34:29.654Z,11.00
2017-07-25T20:36:57.225Z,11.70
2017-07-25T20:39:24.802Z,9.90
2017-07-25T20:41:53.447Z,10.63
2017-07-25T20:44:20.991Z,11.50
2017-07-25T20:46:48.598Z,12.93
2017-07-25T20:49:16.916Z,10.47
2017-07-25T20:51:44.457Z,12.20
2017-07-25T20:54:12.032Z,10.80
2017-07-25T20:56:39.932Z,11.03
2017-07-25T20:59:07.472Z,11.40
2017-07-25T21:01:35.049Z,12.10
2017-07-25T21:04:02.594Z,10.67
2017-07-25T21:06:30.133Z,10.93
2017-07-25T21:08:57.697Z,12.60
2017-07-25T21:11:25.233Z,11.47
2017-07-25T21:13:52.831Z,11.87
2017-07-25T21:16:20.373Z,10.83
2017-07-25T21:18:47.923Z,11.93
2017-07-25T21:21:15.493Z,10.67
2017-07-25T21:23:43.078Z,12.80
2017-07-25T21:26:10.649Z,13.30
2017-07-25T21:28:38.198Z,12.47
2017-07-25T21:31:05.782Z,12.80
2017-07-25T21:33:33.321Z,12.53
2017-07-25T21:36:00.852Z,9.93
2017-07-25T21:38:28.476Z,10.47
2017-07-25T21:40:56.791Z,11.17
2017-07-25T21:43:24.672Z,11.30
2017-07-25T21:45:52.826Z,12.00
2017-07-25T21:48:20.383Z,9.43
2017-07-25T21:50:47.918Z,10.40
2017-07-25T21:53:16.255Z,10.57
2017-07-25T21:55:43.794Z,11.60
2017-07-25T21:58:11.374Z,13.00
2017-07-25T22:00:38.914Z,12.90
2017-07-25T22:03:18.326Z,12.83
2017-07-25T22:05:45.880Z,13.83
2017-07-25T22:08:14.238Z,12.80
2017-07-25T22:10:42.882Z,14.70
2017-07-25T22:13:10.426Z,13.40
2017-07-25T22:15:37.967Z,13.97
2017-07-25T22:18:06.954Z,13.17
2017-07-25T22:20:34.513Z,13.20
2017-07-25T22:23:02.851Z,13.77
2017-07-25T22:25:30.390Z,13.17
2017-07-25T22:27:57.964Z,13.10
2017-07-25T22:30:25.537Z,12.00
2017-07-25T22:32:53.079Z,12.70
2017-07-25T22:35:20.617Z,12.47
2017-07-25T22:37:48.183Z,11.90
2017-07-25T22:40:16.640Z,13.10
2017-07-25T22:42:44.217Z,14.07
2017-07-25T22:45:11.753Z,14.00
2017-07-25T22:47:40.055Z,12.57
2017-07-25T22:50:07.630Z,15.20
2017-07-25T22:52:35.409Z,15.50
2017-07-25T22:55:02.975Z,16.17
2017-07-25T22:57:30.509Z,16.47
2017-07-25T22:59:58.077Z,16.90
2017-07-25T23:02:25.613Z,17.40
2017-07-25T23:04:53.215Z,18.13
2017-07-25T23:07:22.894Z,18.33
2017-07-25T23:09:50.430Z,17.97
2017-07-25T23:12:17.999Z,17.70
2017-07-25T23:14:45.541Z,18.20
2017-07-25T23:17:13.845Z,17.73
2017-07-25T23:19:41.431Z,17.47
2017-07-25T23:22:08.966Z,16.57
2017-07-25T23:24:36.507Z,16.80
2017-07-25T23:27:04.936Z,16.60
2017-07-25T23:29:32.474Z,18.17
2017-07-25T23:32:00.043Z,16.93
2017-07-25T23:34:27.617Z,17.63
2017-07-25T23:36:55.195Z,18.30
2017-07-25T23:39:23.507Z,17.43
2017-07-25T23:41:51.056Z,18.40
2017-07-25T23:44:19.597Z,18.53
2017-07-25T23:46:47.199Z,19.30
2017-07-25T23:49:15.509Z,18.30
2017-07-25T23:51:43.050Z,20.77
2017-07-25T23:54:10.627Z,17.43
2017-07-25T23:56:38.163Z,18.40
2017-07-25T23:59:05.710Z,17.20
